Time;durP1;ratioP1;P1;durP2;ratioP2;P2;SDS_P1;SDS_P2;PMS_P1;PMS_P2;Temp;Humidity;BMP_temperature;BMP_pressure;BME280_temperature;BME280_humidity;BME280_pressure;Samples;Min_cycle;Max_cycle;Signal;HPM_P1;HPM_P2
2022/11/28 00:01:23;;;;;;;11.13;5.80;;;;;;;7.78;100.00;100974.59;5015654;28;20045;-64
2022/11/28 00:03:50;;;;;;;8.55;5.32;;;;;;;7.66;100.00;100973.81;5020661;28;20057;-64
2022/11/28 00:06:17;;;;;;;10.52;6.03;;;;;;;7.68;100.00;100962.31;4995958;28;20049;-64
2022/11/28 00:08:44;;;;;;;9.27;5.88;;;;;;;7.66;100.00;100958.16;5014485;28;20053;-64
2022/11/28 00:11:12;;;;;;;9.13;5.70;;;;;;;7.61;100.00;100957.69;5023425;28;20052;-64
2022/11/28 00:13:39;;;;;;;10.52;6.07;;;;;;;7.64;100.00;100970.50;5016862;28;20494;-64
2022/11/28 00:16:07;;;;;;;10.27;5.45;;;;;;;7.72;100.00;100968.09;5022257;28;20709;-65
2022/11/28 00:18:34;;;;;;;10.40;6.25;;;;;;;7.65;100.00;100962.53;5007239;28;20153;-64
2022/11/28 00:21:06;;;;;;;12.65;6.28;;;;;;;7.69;100.00;100957.91;5023400;28;20424;-64
2022/11/28 00:23:33;;;;;;;10.75;5.55;;;;;;;7.70;100.00;100957.78;5006452;28;20041;-64
2022/11/28 00:26:05;;;;;;;9.30;5.57;;;;;;;7.65;100.00;100967.75;5019162;28;20045;-64
2022/11/28 00:28:32;;;;;;;11.25;6.18;;;;;;;7.61;100.00;100955.09;5023194;28;20050;-64
2022/11/28 00:30:59;;;;;;;9.80;6.25;;;;;;;7.58;100.00;100955.31;5014158;28;20834;-64
2022/11/28 00:33:26;;;;;;;10.52;5.57;;;;;;;7.63;100.00;100956.63;5017933;28;20688;-64
2022/11/28 00:35:59;;;;;;;10.85;6.13;;;;;;;7.62;100.00;100952.34;5020408;28;20049;-64
2022/11/28 00:38:26;;;;;;;9.18;5.40;;;;;;;7.58;100.00;100935.25;5014763;28;20099;-64
2022/11/28 00:41:04;;;;;;;10.18;5.85;;;;;;;7.66;100.00;100942.47;5015490;28;20063;-64
2022/11/28 00:43:31;;;;;;;9.57;5.55;;;;;;;7.63;100.00;100937.53;5018120;28;20057;-64
2022/11/28 00:45:57;;;;;;;8.65;5.55;;;;;;;7.65;100.00;100943.44;5016400;28;20053;-64
2022/11/28 00:48:24;;;;;;;8.82;5.20;;;;;;;7.68;100.00;100943.19;5017114;28;20049;-63
2022/11/28 00:50:52;;;;;;;10.55;6.18;;;;;;;7.66;100.00;100945.94;5033504;28;20053;-64
2022/11/28 00:53:18;;;;;;;9.60;5.45;;;;;;;7.64;100.00;100944.38;5011248;28;20127;-64
2022/11/28 00:55:45;;;;;;;9.80;5.63;;;;;;;7.65;100.00;100939.03;5020828;28;20049;-65
2022/11/28 00:58:11;;;;;;;10.05;5.03;;;;;;;7.66;100.00;100939.88;5013843;28;20501;-64
2022/11/28 01:00:38;;;;;;;9.95;6.03;;;;;;;7.66;100.00;100932.88;5015617;28;20045;-64
2022/11/28 01:03:05;;;;;;;8.10;5.80;;;;;;;7.68;100.00;100927.50;5012250;28;20050;-64
2022/11/28 01:05:31;;;;;;;7.80;5.07;;;;;;;7.63;100.00;100922.69;5011268;28;20100;-64
2022/11/28 01:07:57;;;;;;;8.23;5.00;;;;;;;7.66;100.00;100916.38;5008315;28;20053;-65
2022/11/28 01:10:25;;;;;;;10.23;5.18;;;;;;;7.74;100.00;100927.00;5011023;28;20104;-64
2022/11/28 01:12:52;;;;;;;10.68;5.50;;;;;;;7.67;100.00;100923.25;5014676;28;20426;-64
2022/11/28 01:15:18;;;;;;;8.18;5.07;;;;;;;7.64;100.00;100920.88;5010163;28;20407;-64
2022/11/28 01:17:44;;;;;;;10.40;5.30;;;;;;;7.64;100.00;100918.28;5004551;28;20469;-64
2022/11/28 01:20:11;;;;;;;8.80;4.82;;;;;;;7.68;100.00;100915.31;5001914;28;20045;-65
2022/11/28 01:22:38;;;;;;;9.27;5.35;;;;;;;7.61;100.00;100918.53;5009415;28;20044;-64
2022/11/28 01:25:04;;;;;;;6.95;4.80;;;;;;;7.64;100.00;100911.25;5027823;28;20050;-64
2022/11/28 01:27:31;;;;;;;7.55;4.78;;;;;;;7.67;100.00;100905.81;5010745;28;20042;-64
2022/11/28 01:29:57;;;;;;;7.60;4.88;;;;;;;7.69;100.00;100898.69;5018069;28;20065;-64
2022/11/28 01:32:24;;;;;;;7.25;4.45;;;;;;;7.69;100.00;100903.91;5010589;28;20045;-64
2022/11/28 01:34:50;;;;;;;7.88;4.90;;;;;;;7.77;100.00;100902.44;5010923;28;20071;-64
2022/11/28 01:37:17;;;;;;;11.27;5.07;;;;;;;7.82;100.00;100905.50;5018766;28;20064;-64
2022/11/28 01:39:43;;;;;;;6.28;4.40;;;;;;;7.80;100.00;100908.25;5021317;28;20082;-64
2022/11/28 01:42:19;;;;;;;6.78;4.47;;;;;;;7.86;100.00;100907.75;5023938;28;20057;-64
2022/11/28 01:44:48;;;;;;;6.82;4.55;;;;;;;7.89;100.00;100906.66;5009815;28;20520;-65
2022/11/28 01:47:20;;;;;;;8.88;4.85;;;;;;;7.91;100.00;100910.78;5018418;28;20469;-64
2022/11/28 01:49:48;;;;;;;8.10;4.60;;;;;;;7.87;100.00;100905.94;5018283;28;20063;-64
2022/11/28 01:52:18;;;;;;;9.00;4.95;;;;;;;7.88;100.00;100902.41;5021851;28;20045;-64
2022/11/28 01:54:49;;;;;;;7.30;4.45;;;;;;;7.86;100.00;100902.53;5018916;28;20065;-64
2022/11/28 01:57:18;;;;;;;7.60;4.68;;;;;;;7.89;100.00;100907.47;5006095;28;20061;-64
2022/11/28 01:59:55;;;;;;;7.60;4.63;;;;;;;7.89;100.00;100904.88;5025146;28;20049;-64
2022/11/28 02:03:11;;;;;;;7.32;4.80;;;;;;;7.89;100.00;100901.44;5007696;28;20080;-64
2022/11/28 02:05:38;;;;;;;7.40;4.53;;;;;;;7.86;100.00;100901.66;4982621;28;20065;-64
2022/11/28 02:08:07;;;;;;;7.43;4.60;;;;;;;7.78;100.00;100893.66;5025179;28;20103;-64
2022/11/28 02:10:39;;;;;;;;;;;;;;;7.82;100.00;100895.91;5026940;28;20053;-64
2022/11/28 02:13:12;;;;;;;10.45;4.68;;;;;;;7.77;100.00;100890.22;5024099;28;19925;-65
2022/11/28 02:15:48;;;;;;;10.90;4.82;;;;;;;7.65;100.00;100899.88;5010214;28;20054;-64
2022/11/28 02:18:33;;;;;;;7.78;4.50;;;;;;;7.61;100.00;100893.25;5021217;28;20050;-65
2022/11/28 02:21:15;;;;;;;8.05;4.97;;;;;;;7.66;100.00;100895.47;5024807;28;20075;-64
2022/11/28 02:23:58;;;;;;;10.18;5.03;;;;;;;7.66;100.00;100895.47;5027909;28;20049;-63
2022/11/28 02:26:30;;;;;;;8.15;4.53;;;;;;;7.64;100.00;100894.78;5020313;28;20069;-64
2022/11/28 02:29:32;;;;;;;8.05;4.75;;;;;;;7.64;100.00;100897.38;5021754;28;20049;-64
2022/11/28 02:32:14;;;;;;;9.90;4.65;;;;;;;7.66;100.00;100888.50;4994137;28;20137;-64
2022/11/28 02:35:22;;;;;;;7.07;4.75;;;;;;;7.67;100.00;100891.94;5008898;28;20099;-64
2022/11/28 02:38:01;;;;;;;7.70;4.43;;;;;;;7.70;100.00;100882.06;5000069;28;20053;-63
2022/11/28 02:40:50;;;;;;;11.32;5.40;;;;;;;7.72;100.00;100893.22;5033931;28;20049;-64
2022/11/28 02:43:23;;;;;;;8.02;4.60;;;;;;;7.68;100.00;100894.44;5014771;28;20060;-64
2022/11/28 02:45:55;;;;;;;8.90;4.68;;;;;;;7.68;100.00;100897.03;5019439;28;20112;-64
2022/11/28 02:48:40;;;;;;;8.98;5.38;;;;;;;7.64;100.00;100884.34;5018217;28;20526;-64
2022/11/28 02:51:19;;;;;;;9.55;4.82;;;;;;;7.65;100.00;100879.00;5013820;28;20049;-64
2022/11/28 02:53:48;;;;;;;8.63;4.60;;;;;;;7.66;100.00;100882.44;5019616;28;20087;-64
2022/11/28 02:56:14;;;;;;;;;;;;;;;7.70;100.00;100883.81;5031525;28;20801;-65
2022/11/28 02:58:41;;;;;;;9.73;6.05;;;;;;;7.64;100.00;100879.94;5024795;28;19936;-64
2022/11/28 03:01:34;;;;;;;9.57;5.15;;;;;;;7.73;100.00;100880.97;5025671;28;20099;-64
2022/11/28 03:04:25;;;;;;;8.93;5.60;;;;;;;7.67;100.00;100873.66;5033056;28;20412;-64
2022/11/28 03:07:39;;;;;;;9.80;5.05;;;;;;;7.67;100.00;100878.88;5018527;28;20415;-64
2022/11/28 03:10:11;;;;;;;8.55;4.68;;;;;;;7.59;100.00;100874.28;4974024;28;20073;-64
2022/11/28 03:12:54;;;;;;;6.97;4.65;;;;;;;7.60;100.00;100875.09;5011927;28;20061;-64
2022/11/28 03:15:29;;;;;;;10.38;5.50;;;;;;;7.66;100.00;100878.06;5026275;28;20167;-64
2022/11/28 03:18:22;;;;;;;10.18;4.60;;;;;;;7.60;100.00;100881.16;5010964;28;20077;-64
2022/11/28 03:20:59;;;;;;;9.38;4.72;;;;;;;7.63;100.00;100878.28;5020103;28;20053;-65
2022/11/28 03:23:35;;;;;;;7.53;4.68;;;;;;;7.60;100.00;100878.53;5002808;28;20053;-65
2022/11/28 03:26:11;;;;;;;7.53;4.20;;;;;;;7.63;100.00;100880.09;5009854;28;20633;-64
2022/11/28 03:28:53;;;;;;;7.18;4.18;;;;;;;7.69;100.00;100880.41;5000980;28;20099;-64
2022/11/28 03:31:26;;;;;;;8.15;4.68;;;;;;;7.68;100.00;100881.38;5025511;28;20057;-65
2022/11/28 03:33:57;;;;;;;7.60;4.85;;;;;;;7.68;100.00;100886.59;5019091;28;20053;-64
2022/11/28 03:36:45;;;;;;;6.90;4.40;;;;;;;7.71;100.00;100877.66;5021434;28;20144;-63
2022/11/28 03:39:16;;;;;;;7.88;4.80;;;;;;;7.75;100.00;100875.63;5023006;28;20059;-65
2022/11/28 03:41:54;;;;;;;8.32;5.00;;;;;;;7.77;100.00;100876.34;5017119;28;20060;-62
2022/11/28 03:44:26;;;;;;;8.30;5.35;;;;;;;7.76;100.00;100878.09;5025189;28;20057;-64
2022/11/28 03:46:56;;;;;;;8.18;5.53;;;;;;;7.81;100.00;100882.97;5017021;28;20072;-64
2022/11/28 03:49:29;;;;;;;9.32;6.07;;;;;;;7.80;100.00;100884.75;5013852;28;20085;-64
2022/11/28 03:52:02;;;;;;;8.00;5.32;;;;;;;7.80;100.00;100878.69;5015382;28;20053;-64
2022/11/28 03:54:57;;;;;;;7.95;5.75;;;;;;;7.81;100.00;100883.78;5017534;28;20100;-64
2022/11/28 03:57:36;;;;;;;8.80;6.05;;;;;;;7.88;100.00;100884.94;5013644;28;20057;-63
2022/11/28 04:00:05;;;;;;;;;;;;;;;7.87;100.00;100879.84;5023712;28;20053;-65
2022/11/28 04:02:41;;;;;;;8.30;5.60;;;;;;;7.86;100.00;100884.25;5019585;28;19983;-64
2022/11/28 04:05:21;;;;;;;9.55;5.85;;;;;;;7.82;100.00;100880.22;5020927;28;20049;-64
2022/11/28 04:08:25;;;;;;;8.80;6.10;;;;;;;7.81;100.00;100881.16;5007187;28;20041;-63
2022/11/28 04:10:59;;;;;;;10.82;6.28;;;;;;;7.71;100.00;100883.72;4976429;28;20054;-64
2022/11/28 04:13:42;;;;;;;8.93;5.45;;;;;;;7.81;100.00;100878.56;5015138;28;20107;-64
2022/11/28 04:16:11;;;;;;;11.05;6.00;;;;;;;7.80;100.00;100882.13;5013514;28;20061;-65
2022/11/28 04:18:58;;;;;;;8.40;5.57;;;;;;;7.85;100.00;100881.75;5021074;28;20042;-64
2022/11/28 04:21:36;;;;;;;9.37;5.87;;;;;;;7.84;100.00;100883.53;5008892;28;20049;-64
2022/11/28 04:24:08;;;;;;;9.03;6.33;;;;;;;7.85;100.00;100882.56;5020764;28;20049;-64
2022/11/28 04:26:39;;;;;;;9.77;6.33;;;;;;;7.87;100.00;100879.84;5009616;28;20557;-64
2022/11/28 04:29:10;;;;;;;7.97;5.88;;;;;;;7.84;100.00;100882.69;5015254;28;20057;-64
2022/11/28 04:31:39;;;;;;;7.45;5.45;;;;;;;7.90;100.00;100888.25;4992183;28;20076;-65
2022/11/28 04:34:10;;;;;;;9.73;6.10;;;;;;;7.91;100.00;100889.88;5018344;28;20964;-65
2022/11/28 04:36:39;;;;;;;10.18;6.07;;;;;;;7.91;100.00;100892.50;5009406;28;20125;-65
2022/11/28 04:39:11;;;;;;;7.82;5.72;;;;;;;7.91;100.00;100889.88;5011429;28;20060;-65
2022/11/28 04:41:52;;;;;;;9.77;5.57;;;;;;;7.86;100.00;100888.59;5022849;28;20060;-64
2022/11/28 04:44:26;;;;;;;9.52;5.93;;;;;;;7.84;100.00;100899.22;5016855;28;20049;-64
2022/11/28 04:46:55;;;;;;;9.63;6.45;;;;;;;7.92;100.00;100888.13;5023277;28;20049;-63
2022/11/28 04:49:24;;;;;;;11.38;5.65;;;;;;;7.84;100.00;100890.53;5014281;28;20708;-65
2022/11/28 04:52:02;;;;;;;8.02;5.40;;;;;;;7.90;100.00;100890.03;5019857;28;20080;-65
2022/11/28 04:54:41;;;;;;;9.70;5.83;;;;;;;7.85;100.00;100889.59;5012816;28;20095;-64
2022/11/28 04:57:17;;;;;;;8.85;6.00;;;;;;;7.88;100.00;100895.38;5010931;28;20119;-65
2022/11/28 04:59:46;;;;;;;9.70;6.05;;;;;;;7.80;100.00;100891.72;5021374;28;20076;-64
2022/11/28 05:02:14;;;;;;;9.77;5.97;;;;;;;7.85;100.00;100890.41;5021187;28;20601;-64
2022/11/28 05:04:42;;;;;;;8.25;6.00;;;;;;;7.81;100.00;100885.56;5018344;28;20045;-65
2022/11/28 05:07:09;;;;;;;7.85;5.85;;;;;;;7.81;100.00;100894.22;5014346;28;20081;-63
2022/11/28 05:09:36;;;;;;;8.15;5.38;;;;;;;7.75;100.00;100886.91;5019641;28;20076;-64
2022/11/28 05:12:03;;;;;;;7.50;5.57;;;;;;;7.81;100.00;100888.19;5013623;28;20494;-64
2022/11/28 05:14:29;;;;;;;7.82;5.22;;;;;;;7.76;100.00;100892.94;5013173;28;20760;-64
2022/11/28 05:16:55;;;;;;;8.85;5.30;;;;;;;7.83;100.00;100899.34;5003620;28;20445;-65
2022/11/28 05:19:22;;;;;;;6.35;4.80;;;;;;;7.77;100.00;100892.81;5009738;28;20056;-64
2022/11/28 05:21:49;;;;;;;6.68;5.03;;;;;;;7.80;100.00;100900.41;5020402;28;20050;-64
2022/11/28 05:24:15;;;;;;;6.43;5.05;;;;;;;7.80;100.00;100896.97;5007120;28;20593;-65
2022/11/28 05:26:42;;;;;;;6.93;4.80;;;;;;;7.79;100.00;100892.72;5018990;28;20049;-64
2022/11/28 05:29:08;;;;;;;8.00;4.80;;;;;;;7.80;100.00;100896.97;5016855;28;20053;-64
2022/11/28 05:31:36;;;;;;;7.35;4.93;;;;;;;7.79;100.00;100900.53;5017059;28;20058;-65
2022/11/28 05:34:03;;;;;;;7.68;4.80;;;;;;;7.78;100.00;100902.34;5026608;28;20100;-64
2022/11/28 05:36:29;;;;;;;7.97;5.13;;;;;;;7.79;100.00;100909.19;5019359;28;20119;-65
2022/11/28 05:38:55;;;;;;;6.50;4.78;;;;;;;7.75;100.00;100913.00;5025539;28;20045;-65
2022/11/28 05:41:24;;;;;;;6.25;4.57;;;;;;;7.80;100.00;100912.63;5023706;28;20053;-63
2022/11/28 05:43:52;;;;;;;6.95;4.38;;;;;;;7.77;100.00;100907.66;5028060;28;20460;-65
2022/11/28 05:46:19;;;;;;;7.15;4.35;;;;;;;7.77;100.00;100910.28;5017393;28;20049;-63
2022/11/28 05:48:46;;;;;;;5.45;4.35;;;;;;;7.78;100.00;100909.31;5020822;28;20085;-64
2022/11/28 05:51:12;;;;;;;7.63;4.38;;;;;;;7.81;100.00;100911.69;5027538;28;20045;-64
2022/11/28 05:53:39;;;;;;;6.35;4.22;;;;;;;7.85;100.00;100913.91;5020093;28;20098;-64
2022/11/28 05:56:10;;;;;;;4.78;3.33;;;;;;;7.83;100.00;100918.44;5030279;28;20045;-64
2022/11/28 05:58:37;;;;;;;5.57;4.00;;;;;;;7.83;100.00;100912.38;5021187;28;20495;-65
2022/11/28 06:01:14;;;;;;;7.32;4.28;;;;;;;7.89;100.00;100910.09;5026516;28;20077;-64
2022/11/28 06:03:41;;;;;;;5.25;3.88;;;;;;;7.82;100.00;100914.19;5019895;28;20560;-64
2022/11/28 06:06:16;;;;;;;6.75;4.63;;;;;;;7.86;100.00;100915.59;5025134;28;20057;-65
2022/11/28 06:08:44;;;;;;;5.65;3.75;;;;;;;7.89;100.00;100917.91;5013316;28;20061;-64
2022/11/28 06:11:13;;;;;;;6.88;4.05;;;;;;;7.87;100.00;100917.22;5014276;28;20552;-64
2022/11/28 06:13:41;;;;;;;5.43;3.75;;;;;;;7.90;100.00;100916.97;5014884;28;20059;-65
2022/11/28 06:16:14;;;;;;;6.28;3.75;;;;;;;7.92;100.00;100920.28;5007543;28;20046;-64
2022/11/28 06:18:41;;;;;;;6.93;4.03;;;;;;;7.87;100.00;100917.22;5011337;28;20100;-65
2022/11/28 06:21:09;;;;;;;5.30;4.20;;;;;;;7.88;100.00;100915.47;5015492;28;20054;-64
2022/11/28 06:23:36;;;;;;;7.18;4.00;;;;;;;7.87;100.00;100909.38;5018605;28;20096;-64
2022/11/28 06:26:11;;;;;;;5.65;4.20;;;;;;;7.91;100.00;100915.19;5019794;28;20049;-65
2022/11/28 06:28:38;;;;;;;5.07;3.70;;;;;;;7.92;100.00;100919.47;5024543;28;20570;-64
2022/11/28 06:31:12;;;;;;;5.63;3.67;;;;;;;7.96;100.00;100918.25;5019084;28;20062;-63
2022/11/28 06:33:39;;;;;;;4.72;3.67;;;;;;;7.96;100.00;100913.03;5008565;28;20049;-64
2022/11/28 06:36:06;;;;;;;7.13;3.80;;;;;;;7.93;100.00;100918.50;5026479;28;20061;-63
2022/11/28 06:38:32;;;;;;;5.78;3.88;;;;;;;7.93;100.00;100915.88;5010506;28;20413;-65
2022/11/28 06:41:02;;;;;;;5.15;3.92;;;;;;;7.95;100.00;100918.38;5015171;28;20056;-65
2022/11/28 06:43:29;;;;;;;6.32;3.70;;;;;;;7.97;100.00;100921.69;5012345;28;20049;-64
2022/11/28 06:45:56;;;;;;;5.10;3.88;;;;;;;7.95;100.00;100928.81;5011588;28;20453;-64
2022/11/28 06:48:23;;;;;;;5.00;3.72;;;;;;;7.94;100.00;100930.63;5019994;28;20121;-65
2022/11/28 06:50:50;;;;;;;4.88;3.75;;;;;;;8.00;100.00;100927.50;5010004;28;20061;-64
2022/11/28 06:53:16;;;;;;;7.07;4.57;;;;;;;7.97;100.00;100924.31;5008450;28;20061;-64
2022/11/28 06:55:43;;;;;;;5.03;3.97;;;;;;;7.98;100.00;100926.78;4998825;28;20107;-65
2022/11/28 06:58:10;;;;;;;6.10;4.03;;;;;;;7.97;100.00;100929.53;5019121;28;20057;-64
2022/11/28 07:00:37;;;;;;;6.18;4.50;;;;;;;7.97;100.00;100924.31;5010550;28;20410;-65
2022/11/28 07:03:04;;;;;;;5.40;3.92;;;;;;;7.99;100.00;100925.00;5013300;28;20049;-64
2022/11/28 07:05:30;;;;;;;6.38;4.00;;;;;;;8.02;100.00;100937.81;5020995;28;20045;-64
2022/11/28 07:07:57;;;;;;;5.55;4.05;;;;;;;7.96;100.00;100931.31;5010566;28;20094;-64
2022/11/28 07:10:24;;;;;;;4.30;3.55;;;;;;;8.00;100.00;100937.13;5020410;28;20049;-64
2022/11/28 07:12:58;;;;;;;6.22;3.90;;;;;;;8.00;100.00;100943.16;5011999;28;20483;-64
2022/11/28 07:15:30;;;;;;;5.90;3.75;;;;;;;7.94;100.00;100933.22;5010018;28;20049;-63
2022/11/28 07:17:57;;;;;;;5.95;4.03;;;;;;;8.01;100.00;100938.75;5007357;28;20049;-65
2022/11/28 07:20:23;;;;;;;6.05;4.30;;;;;;;7.93;100.00;100937.59;4999394;28;20045;-64
2022/11/28 07:22:49;;;;;;;5.63;4.10;;;;;;;7.97;100.00;100939.97;5023561;28;20970;-65
2022/11/28 07:25:16;;;;;;;5.28;3.92;;;;;;;7.95;100.00;100941.88;5009110;28;20050;-63
2022/11/28 07:27:42;;;;;;;5.22;3.97;;;;;;;7.99;100.00;100938.06;5024183;28;20498;-64
2022/11/28 07:30:10;;;;;;;6.40;4.22;;;;;;;8.01;100.00;100939.59;5024900;28;20053;-64
2022/11/28 07:32:39;;;;;;;5.50;3.80;;;;;;;8.12;100.00;100939.53;5007193;28;20124;-64
2022/11/28 07:35:07;;;;;;;6.63;4.68;;;;;;;8.10;100.00;100945.84;5014508;28;20046;-64
2022/11/28 07:37:34;;;;;;;6.00;4.00;;;;;;;8.05;100.00;100951.44;5008544;28;20049;-64
2022/11/28 07:40:01;;;;;;;10.93;4.47;;;;;;;8.04;100.00;100944.56;5033442;28;20041;-65
2022/11/28 07:42:27;;;;;;;7.05;4.72;;;;;;;8.07;100.00;100941.69;5028036;28;20064;-63
2022/11/28 07:44:53;;;;;;;6.70;4.50;;;;;;;8.00;100.00;100947.56;5019491;28;20080;-64
2022/11/28 07:47:20;;;;;;;5.68;4.65;;;;;;;8.01;100.00;100955.25;5015014;28;20046;-64
2022/11/28 07:49:47;;;;;;;7.03;4.32;;;;;;;8.05;100.00;100953.22;5008007;28;20465;-65
2022/11/28 07:52:13;;;;;;;6.82;4.80;;;;;;;8.06;100.00;100947.06;5023552;28;20084;-65
2022/11/28 07:54:39;;;;;;;6.88;4.65;;;;;;;8.08;100.00;100953.81;5014934;28;20056;-64
2022/11/28 07:57:06;;;;;;;6.30;4.70;;;;;;;8.07;100.00;100952.13;5025969;28;20757;-65
2022/11/28 07:59:39;;;;;;;8.02;5.28;;;;;;;8.05;100.00;100951.44;5024505;28;20111;-64
2022/11/28 08:02:09;;;;;;;7.55;5.63;;;;;;;8.11;100.00;100958.78;5019999;28;20147;-65
2022/11/28 08:04:36;;;;;;;6.35;5.00;;;;;;;8.10;100.00;100953.69;5020520;28;20819;-64
2022/11/28 08:07:02;;;;;;;6.50;5.10;;;;;;;8.11;100.00;100957.94;5011385;28;20053;-65
2022/11/28 08:09:31;;;;;;;6.40;4.65;;;;;;;8.17;100.00;100961.84;5021120;28;20084;-65
2022/11/28 08:11:57;;;;;;;7.88;4.65;;;;;;;8.17;100.00;100960.03;5011510;28;20062;-66
2022/11/28 08:14:24;;;;;;;6.13;4.50;;;;;;;8.20;100.00;100958.97;5019433;28;20053;-65
2022/11/28 08:16:51;;;;;;;8.65;5.53;;;;;;;8.23;100.00;100964.78;5010590;28;20058;-65
2022/11/28 08:19:17;;;;;;;8.00;6.13;;;;;;;8.22;100.00;100963.13;5009939;28;20050;-64
2022/11/28 08:21:50;;;;;;;6.95;5.22;;;;;;;8.20;100.00;100964.22;5022744;28;20075;-65
2022/11/28 08:24:16;;;;;;;7.75;5.75;;;;;;;8.15;100.00;100967.19;5010131;28;20103;-65
2022/11/28 08:26:43;;;;;;;6.90;5.07;;;;;;;8.21;100.00;100971.06;5016981;28;20050;-65
2022/11/28 08:29:09;;;;;;;6.95;5.30;;;;;;;8.22;100.00;100967.53;5017340;28;20092;-63
2022/11/28 08:31:37;;;;;;;7.80;5.25;;;;;;;8.24;100.00;100968.22;5008452;28;20510;-65
2022/11/28 08:34:07;;;;;;;7.63;5.43;;;;;;;8.25;100.00;100969.88;5010147;28;20049;-64
2022/11/28 08:36:33;;;;;;;7.65;5.78;;;;;;;8.29;100.00;100958.19;5015293;28;20282;-65
2022/11/28 08:39:01;;;;;;;7.05;5.75;;;;;;;8.28;100.00;100965.22;5013065;28;20553;-65
2022/11/28 08:41:48;;;;;;;7.32;5.43;;;;;;;8.20;100.00;100974.66;5024418;28;20522;-65
2022/11/28 08:44:15;;;;;;;7.00;5.57;;;;;;;8.29;100.00;100985.19;4996072;28;20089;-65
2022/11/28 08:46:41;;;;;;;7.65;5.05;;;;;;;8.25;100.00;100982.94;4969133;28;20060;-65
2022/11/28 08:49:07;;;;;;;7.55;5.60;;;;;;;8.20;100.00;100985.13;5008940;28;20544;-65
2022/11/28 08:51:35;;;;;;;7.20;5.57;;;;;;;8.27;100.00;100988.84;5007856;28;20053;-65
2022/11/28 08:54:01;;;;;;;7.57;6.18;;;;;;;8.19;100.00;100992.09;5003049;28;20050;-65
2022/11/28 08:56:28;;;;;;;10.73;5.72;;;;;;;8.18;100.00;100987.84;5011460;28;20045;-65
2022/11/28 08:58:54;;;;;;;6.88;5.07;;;;;;;8.21;100.00;100981.53;5000715;28;20073;-64
2022/11/28 09:01:24;;;;;;;7.57;5.20;;;;;;;8.22;100.00;100980.59;5011297;28;20600;-65
2022/11/28 09:03:52;;;;;;;9.20;5.75;;;;;;;8.23;100.00;100984.84;5007824;28;20053;-65
2022/11/28 09:06:19;;;;;;;;;;;;;;;8.23;100.00;100992.69;5024088;28;20091;-65
2022/11/28 09:08:47;;;;;;;6.90;5.05;;;;;;;8.26;100.00;100995.06;5029261;28;20027;-64
2022/11/28 09:11:16;;;;;;;9.23;5.65;;;;;;;8.26;100.00;100998.50;5022226;28;20612;-65
2022/11/28 09:13:43;;;;;;;8.85;6.00;;;;;;;8.27;100.00;101004.53;5017839;28;20045;-63
2022/11/28 09:16:10;;;;;;;9.15;6.03;;;;;;;8.28;100.00;100999.19;5003242;28;20064;-64
2022/11/28 09:18:36;;;;;;;8.57;5.95;;;;;;;8.25;100.00;101002.06;5023036;28;20049;-64
2022/11/28 09:21:08;;;;;;;7.72;5.10;;;;;;;8.33;100.00;101001.44;5034945;28;20057;-64
2022/11/28 09:23:36;;;;;;;8.68;5.45;;;;;;;8.35;100.00;101001.28;5021529;28;20045;-66
2022/11/28 09:26:09;;;;;;;8.23;5.27;;;;;;;8.38;100.00;100991.41;5016016;28;20459;-65
2022/11/28 09:28:36;;;;;;;7.78;5.40;;;;;;;8.36;100.00;100997.75;5010481;28;20096;-65
2022/11/28 09:31:04;;;;;;;8.27;6.25;;;;;;;8.40;100.00;100992.13;5017349;28;20049;-65
2022/11/28 09:33:31;;;;;;;8.85;6.30;;;;;;;8.45;100.00;100997.84;5018348;28;20052;-65
2022/11/28 09:36:02;;;;;;;7.13;5.20;;;;;;;8.45;100.00;100995.22;5023760;28;20084;-64
2022/11/28 09:38:29;;;;;;;8.80;5.28;;;;;;;8.36;100.00;101001.16;5019063;28;20507;-65
2022/11/28 09:40:55;;;;;;;6.80;5.32;;;;;;;8.41;100.00;100993.81;5007471;28;20060;-66
2022/11/28 09:43:30;;;;;;;9.90;5.80;;;;;;;8.42;100.00;101002.47;5016611;28;20498;-64
2022/11/28 09:45:59;;;;;;;11.43;6.03;;;;;;;8.42;100.00;101000.69;5002299;28;20061;-64
2022/11/28 09:48:25;;;;;;;7.50;5.35;;;;;;;8.41;100.00;101000.78;5016564;28;20717;-64
2022/11/28 09:50:57;;;;;;;10.50;5.60;;;;;;;8.43;100.00;100999.75;5021369;28;20778;-64
2022/11/28 09:53:33;;;;;;;8.75;5.80;;;;;;;8.42;100.00;101003.31;5019129;28;20060;-65
2022/11/28 09:56:09;;;;;;;9.40;6.07;;;;;;;8.47;100.00;101000.31;5017969;28;20049;-64
2022/11/28 09:58:49;;;;;;;7.57;5.57;;;;;;;8.55;100.00;101005.72;5012227;28;20053;-64
2022/11/28 10:01:28;;;;;;;7.53;5.50;;;;;;;8.58;100.00;101007.25;5023080;28;20107;-65
2022/11/28 10:03:58;;;;;;;7.57;5.40;;;;;;;8.50;100.00;101005.28;5015597;28;20061;-64
2022/11/28 10:06:47;;;;;;;7.85;5.55;;;;;;;8.49;100.00;101009.69;5022339;28;20065;-64
2022/11/28 10:09:39;;;;;;;;;;;;;;;8.61;100.00;101013.06;5011103;28;20056;-65
2022/11/28 10:12:20;;;;;;;6.70;4.95;;;;;;;8.59;100.00;101007.13;4982550;28;20203;-65
2022/11/28 10:15:11;;;;;;;6.03;4.97;;;;;;;8.59;100.00;101011.53;5006967;28;20562;-64
2022/11/28 10:17:44;;;;;;;6.28;4.70;;;;;;;8.54;100.00;101014.53;5003086;28;20045;-65
2022/11/28 10:20:19;;;;;;;6.03;4.60;;;;;;;8.62;100.00;101014.69;5011281;28;20057;-64
2022/11/28 10:23:01;;;;;;;6.55;4.55;;;;;;;8.62;100.00;101012.09;5017431;28;20056;-65
2022/11/28 10:25:38;;;;;;;6.55;4.80;;;;;;;8.60;100.00;101019.22;5016587;28;20057;-65
2022/11/28 10:28:08;;;;;;;8.13;4.80;;;;;;;8.69;100.00;101015.03;5019893;28;20057;-64
2022/11/28 10:30:41;;;;;;;6.00;4.63;;;;;;;8.78;100.00;101014.25;5022118;28;20061;-64
2022/11/28 10:33:15;;;;;;;6.30;4.40;;;;;;;8.80;100.00;101012.34;5005628;28;20069;-65
2022/11/28 10:35:57;;;;;;;7.18;4.68;;;;;;;8.83;100.00;101008.63;5016881;28;20053;-64
2022/11/28 10:38:26;;;;;;;7.10;4.60;;;;;;;8.82;100.00;101015.66;5005631;28;20148;-64
2022/11/28 10:41:17;;;;;;;7.00;4.82;;;;;;;8.89;100.00;101013.34;5024471;28;20058;-65
2022/11/28 10:43:58;;;;;;;7.03;4.97;;;;;;;8.82;100.00;101014.81;5007644;28;20585;-65
2022/11/28 10:46:24;;;;;;;8.38;5.18;;;;;;;8.84;100.00;101012.88;5020132;28;20675;-65
2022/11/28 10:48:57;;;;;;;7.10;5.40;;;;;;;8.90;100.00;101007.16;5008946;28;20057;-65
2022/11/28 10:51:48;;;;;;;8.00;5.60;;;;;;;8.93;100.00;101006.06;5026445;28;20055;-64
2022/11/28 10:54:33;;;;;;;6.28;4.45;;;;;;;8.91;100.00;101014.03;5018445;28;20042;-65
2022/11/28 10:57:10;;;;;;;7.22;4.60;;;;;;;8.97;100.00;101010.88;5013298;28;20067;-65
2022/11/28 10:59:53;;;;;;;7.75;6.10;;;;;;;8.95;100.00;101004.97;5022419;28;20418;-66
2022/11/28 11:02:21;;;;;;;7.35;5.78;;;;;;;8.98;100.00;101014.34;5008086;28;20045;-65
2022/11/28 11:04:47;;;;;;;9.57;5.63;;;;;;;8.98;100.00;101014.34;5022987;28;20057;-65
2022/11/28 11:07:25;;;;;;;10.48;6.38;;;;;;;9.00;100.00;101009.81;5012106;28;20462;-65
2022/11/28 11:10:01;;;;;;;11.52;7.07;;;;;;;8.92;100.00;101002.63;5018380;28;20790;-65
2022/11/28 11:12:31;;;;;;;9.63;6.70;;;;;;;8.94;100.00;101000.69;5006112;28;20062;-64
2022/11/28 11:14:57;;;;;;;11.55;7.15;;;;;;;8.90;100.00;101010.59;5018060;28;20045;-65
2022/11/28 11:17:42;;;;;;;10.02;6.45;;;;;;;8.96;100.00;101004.00;5021445;28;20050;-64
2022/11/28 11:20:29;;;;;;;9.32;6.00;;;;;;;9.02;100.00;101006.09;5020578;28;20141;-64
2022/11/28 11:23:09;;;;;;;14.40;7.82;;;;;;;9.10;100.00;101006.25;5016179;28;20071;-65
2022/11/28 11:25:36;;;;;;;10.57;6.95;;;;;;;9.01;100.00;101001.00;5001847;28;20549;-66
2022/11/28 11:28:03;;;;;;;12.27;7.80;;;;;;;9.01;100.00;101001.81;5022628;28;20147;-65
2022/11/28 11:30:38;;;;;;;10.98;7.50;;;;;;;9.01;100.00;101003.59;5012520;28;20072;-65
2022/11/28 11:33:11;;;;;;;10.45;7.03;;;;;;;9.04;100.00;101006.81;5020692;28;20060;-65
2022/11/28 11:35:47;;;;;;;13.50;7.40;;;;;;;9.13;100.00;101004.34;5022743;28;20060;-65
2022/11/28 11:38:36;;;;;;;13.32;8.15;;;;;;;9.19;100.00;101003.81;5015527;28;20436;-65
2022/11/28 11:41:28;;;;;;;11.82;6.82;;;;;;;9.24;100.00;101002.44;5021401;28;20096;-64
2022/11/28 11:44:16;;;;;;;9.07;6.30;;;;;;;9.21;100.00;101000.13;4998042;28;20136;-66
2022/11/28 11:46:57;;;;;;;12.82;6.70;;;;;;;9.30;100.00;101004.53;5016931;28;20054;-66